Time;durP1;ratioP1;P1;durP2;ratioP2;P2;SDS_P1;SDS_P2;PMS_P1;PMS_P2;Temp;Humidity;BMP_temperature;BMP_pressure;BME280_temperature;BME280_humidity;BME280_pressure;Samples;Min_cycle;Max_cycle;Signal;HPM_P1;HPM_P2
2023/09/04 00:01:38;;;;;;;4.43;3.00;;;;;;;13.62;89.28;102150.94;5093983;28;20212;-83
2023/09/04 00:04:05;;;;;;;3.20;2.90;;;;;;;13.60;89.37;102152.88;5094158;28;20576;-82
2023/09/04 00:06:31;;;;;;;3.70;2.70;;;;;;;13.55;88.85;102146.88;5094174;28;20224;-85
2023/09/04 00:09:00;;;;;;;2.90;2.70;;;;;;;13.50;89.11;102155.13;5094122;28;20195;-83
2023/09/04 00:11:27;;;;;;;2.90;2.70;;;;;;;13.47;89.92;102147.25;5093887;28;20219;-82
2023/09/04 00:13:53;;;;;;;3.43;2.73;;;;;;;13.46;89.97;102153.56;5094537;28;20196;-82
2023/09/04 00:16:20;;;;;;;3.17;2.87;;;;;;;13.40;90.01;102150.34;5094481;28;20208;-81
2023/09/04 00:18:47;;;;;;;3.40;3.10;;;;;;;13.36;90.19;102156.78;5094190;28;20196;-81
2023/09/04 00:21:14;;;;;;;3.20;2.00;;;;;;;13.30;89.91;102157.97;5095121;28;20227;-82
2023/09/04 00:23:40;;;;;;;3.50;2.33;;;;;;;13.28;89.82;102161.66;5095068;28;20204;-82
2023/09/04 00:26:08;;;;;;;3.77;3.20;;;;;;;13.19;90.28;102163.88;5094785;28;20239;-84
2023/09/04 00:28:35;;;;;;;3.60;2.60;;;;;;;13.15;91.61;102166.75;5094781;28;20206;-85
2023/09/04 00:31:02;;;;;;;4.27;2.70;;;;;;;13.12;92.29;102159.72;5087738;28;20221;-83
2023/09/04 00:33:28;;;;;;;3.77;3.00;;;;;;;13.11;93.21;102154.44;5074551;28;20211;-83
2023/09/04 00:35:55;;;;;;;3.40;2.40;;;;;;;13.10;93.72;102156.25;5074417;28;20197;-82
2023/09/04 00:38:21;;;;;;;4.87;2.73;;;;;;;13.08;94.18;102152.78;5074502;28;20220;-82
2023/09/04 00:40:48;;;;;;;3.20;2.90;;;;;;;13.07;94.50;102158.25;5073881;28;20572;-82
2023/09/04 00:43:15;;;;;;;3.20;2.73;;;;;;;13.03;94.36;102160.19;5074868;28;20209;-82
2023/09/04 00:45:44;;;;;;;2.93;2.60;;;;;;;13.00;94.56;102149.66;5074599;28;20215;-83
2023/09/04 00:48:11;;;;;;;3.17;2.57;;;;;;;12.99;94.52;102145.25;5074158;28;20239;-85
2023/09/04 00:50:39;;;;;;;2.80;2.60;;;;;;;12.96;94.37;102155.22;5073963;28;20220;-85
2023/09/04 00:53:07;;;;;;;3.23;2.93;;;;;;;12.93;93.72;102153.56;5076092;28;20221;-84
2023/09/04 00:55:34;;;;;;;3.00;2.57;;;;;;;12.89;93.59;102151.13;5073898;28;20212;-83
2023/09/04 00:58:01;;;;;;;2.90;2.60;;;;;;;12.83;93.58;102139.78;5074848;28;20209;-84
2023/09/04 01:00:29;;;;;;;3.13;2.87;;;;;;;12.83;93.98;102146.94;5089928;28;20224;-83
2023/09/04 01:03:02;;;;;;;3.20;2.90;;;;;;;12.82;93.88;102150.56;5094993;28;20700;-82
2023/09/04 01:05:30;;;;;;;3.27;2.97;;;;;;;12.78;93.77;102148.97;5095123;28;20243;-85
2023/09/04 01:07:56;;;;;;;3.10;2.80;;;;;;;12.73;93.83;102150.97;5095020;28;20204;-83
2023/09/04 01:10:31;;;;;;;3.10;2.80;;;;;;;12.68;94.06;102147.69;5094018;28;20235;-82
2023/09/04 01:13:05;;;;;;;3.50;3.20;;;;;;;12.64;94.32;102154.97;5094778;28;20192;-83
2023/09/04 01:15:34;;;;;;;4.13;3.27;;;;;;;12.61;94.87;102143.56;5094574;28;20195;-83
2023/09/04 01:18:00;;;;;;;3.93;3.37;;;;;;;12.62;95.40;102153.31;5094187;28;20294;-85
2023/09/04 01:20:29;;;;;;;4.20;3.60;;;;;;;12.61;96.45;102147.09;5094473;28;20221;-85
2023/09/04 01:22:57;;;;;;;3.93;3.57;;;;;;;12.63;97.51;102147.03;5094353;28;20559;-84
2023/09/04 01:25:28;;;;;;;4.23;3.83;;;;;;;12.63;97.71;102137.22;5094237;28;20214;-84
2023/09/04 01:28:05;;;;;;;5.57;3.70;;;;;;;12.59;98.31;102129.41;5093499;28;20214;-84
2023/09/04 01:30:42;;;;;;;3.90;3.60;;;;;;;12.58;99.04;102133.03;5093576;28;20227;-83
2023/09/04 01:33:14;;;;;;;3.77;3.40;;;;;;;12.54;98.79;102124.28;5085621;28;20554;-85
2023/09/04 01:35:45;;;;;;;3.80;3.40;;;;;;;12.49;98.75;102123.66;5095242;28;20203;-83
2023/09/04 01:38:12;;;;;;;3.60;3.17;;;;;;;12.43;99.14;102118.59;5094159;28;20193;-84
2023/09/04 01:40:39;;;;;;;5.63;3.67;;;;;;;12.40;99.36;102116.06;5093470;28;20228;-83
2023/09/04 01:43:05;;;;;;;4.20;3.53;;;;;;;12.38;99.49;102121.47;5093880;28;20219;-83
2023/09/04 01:45:32;;;;;;;4.07;3.37;;;;;;;12.34;98.88;102122.59;5092593;28;20221;-82
2023/09/04 01:47:58;;;;;;;4.70;3.27;;;;;;;12.27;99.49;102118.44;5093140;28;20237;-83
2023/09/04 01:50:25;;;;;;;5.50;3.63;;;;;;;12.23;99.63;102134.69;5092797;28;20224;-82
2023/09/04 01:52:53;;;;;;;4.10;3.77;;;;;;;12.18;100.00;102130.41;5092666;28;20211;-84
2023/09/04 01:55:19;;;;;;;4.93;3.67;;;;;;;12.15;100.00;102130.59;5092780;28;20272;-82
2023/09/04 01:57:45;;;;;;;4.20;3.37;;;;;;;12.14;100.00;102130.66;5092221;28;20196;-83
2023/09/04 02:00:13;;;;;;;4.30;3.90;;;;;;;12.12;100.00;102132.53;5071472;28;20231;-83
2023/09/04 02:02:39;;;;;;;3.93;3.63;;;;;;;12.10;100.00;102121.91;5072260;28;20591;-84
2023/09/04 02:05:06;;;;;;;4.07;3.67;;;;;;;12.11;100.00;102117.44;5091481;28;20565;-85
2023/09/04 02:07:33;;;;;;;3.70;3.40;;;;;;;12.13;100.00;102120.91;5092491;28;20564;-83
2023/09/04 02:10:00;;;;;;;3.70;3.30;;;;;;;12.15;100.00;102119.03;5092750;28;20246;-83
2023/09/04 02:12:27;;;;;;;4.03;3.63;;;;;;;12.18;100.00;102120.72;5091505;28;20214;-83
2023/09/04 02:14:53;;;;;;;4.47;4.07;;;;;;;12.20;100.00;102125.00;5091923;28;20207;-83
2023/09/04 02:17:20;;;;;;;4.50;4.00;;;;;;;12.20;100.00;102118.81;5092103;28;20208;-84
2023/09/04 02:19:46;;;;;;;4.30;3.90;;;;;;;12.16;100.00;102118.09;5091328;28;20236;-85
2023/09/04 02:22:13;;;;;;;4.83;4.10;;;;;;;12.13;100.00;102113.78;5083075;28;20217;-85
2023/09/04 02:24:41;;;;;;;6.17;4.27;;;;;;;12.11;100.00;102107.63;5091717;28;20204;-84
2023/09/04 02:27:10;;;;;;;4.73;4.23;;;;;;;12.10;100.00;102108.56;5090843;28;20245;-85
2023/09/04 02:29:36;;;;;;;4.90;4.50;;;;;;;12.12;100.00;102108.50;5091537;28;20214;-84
2023/09/04 02:32:03;;;;;;;4.97;4.43;;;;;;;12.12;100.00;102106.69;5092646;28;20208;-84
2023/09/04 02:34:29;;;;;;;4.80;4.40;;;;;;;12.11;100.00;102096.06;5092460;28;20212;-84
2023/09/04 02:36:58;;;;;;;4.77;4.37;;;;;;;12.08;100.00;102104.22;5092329;28;20207;-84
2023/09/04 02:39:24;;;;;;;6.67;4.33;;;;;;;12.07;100.00;102105.16;5092391;28;20275;-84
2023/09/04 02:41:51;;;;;;;7.80;4.63;;;;;;;12.06;100.00;102106.09;5091167;28;20219;-86
2023/09/04 02:44:19;;;;;;;5.67;4.23;;;;;;;12.04;100.00;102105.31;5087852;28;20208;-85
2023/09/04 02:46:45;;;;;;;5.40;4.90;;;;;;;12.04;100.00;102089.28;5071401;28;20231;-85
2023/09/04 02:49:12;;;;;;;7.90;4.93;;;;;;;12.06;100.00;102095.41;5071486;28;20212;-83
2023/09/04 02:51:38;;;;;;;5.30;4.80;;;;;;;12.08;100.00;102093.53;5071511;28;20234;-84
2023/09/04 02:54:05;;;;;;;5.70;4.77;;;;;;;12.12;100.00;102100.47;5090054;28;20697;-84
2023/09/04 02:56:31;;;;;;;5.17;4.67;;;;;;;12.09;100.00;102097.94;5091670;28;20200;-84
2023/09/04 02:58:58;;;;;;;6.47;4.80;;;;;;;12.04;100.00;102095.47;5092085;28;20200;-84
2023/09/04 03:01:25;;;;;;;5.30;4.73;;;;;;;12.05;100.00;102091.88;5091962;28;20237;-85
2023/09/04 03:03:52;;;;;;;4.90;4.50;;;;;;;12.03;100.00;102087.53;5091462;28;20199;-83
2023/09/04 03:06:18;;;;;;;5.17;4.77;;;;;;;11.99;100.00;102092.19;5092444;28;20218;-83
2023/09/04 03:08:45;;;;;;;5.43;4.93;;;;;;;11.96;100.00;102099.47;5091343;28;20217;-84
2023/09/04 03:11:13;;;;;;;5.40;4.90;;;;;;;11.92;100.00;102092.53;5091246;28;20224;-84
2023/09/04 03:13:40;;;;;;;5.40;4.80;;;;;;;11.90;100.00;102092.59;5092147;28;20264;-84
2023/09/04 03:16:07;;;;;;;6.07;5.57;;;;;;;11.89;100.00;102090.00;5090964;28;20214;-83
2023/09/04 03:18:35;;;;;;;5.93;5.00;;;;;;;11.91;100.00;102093.47;5085551;28;20205;-83
2023/09/04 03:21:02;;;;;;;5.93;5.40;;;;;;;11.87;100.00;102098.06;5090466;28;20240;-84
2023/09/04 03:23:29;;;;;;;5.80;5.20;;;;;;;11.85;100.00;102094.59;5092649;28;20209;-83
2023/09/04 03:25:56;;;;;;;7.07;5.47;;;;;;;11.80;100.00;102100.16;5094372;28;20210;-84
2023/09/04 03:28:22;;;;;;;5.77;5.17;;;;;;;11.79;100.00;102105.56;5095513;28;20226;-86
2023/09/04 03:30:49;;;;;;;6.63;5.37;;;;;;;11.76;100.00;102097.69;5094601;28;20733;-84
2023/09/04 03:33:15;;;;;;;5.67;5.13;;;;;;;11.76;100.00;102098.56;5086210;28;20202;-83
2023/09/04 03:35:43;;;;;;;5.57;5.07;;;;;;;11.77;100.00;102096.78;5094404;28;20207;-83
2023/09/04 03:38:10;;;;;;;6.80;6.13;;;;;;;11.76;100.00;102103.91;5094553;28;20826;-82
2023/09/04 03:40:37;;;;;;;5.53;5.07;;;;;;;11.76;100.00;102095.91;5094390;28;20251;-84
2023/09/04 03:43:04;;;;;;;6.63;5.50;;;;;;;11.77;100.00;102097.63;5094376;28;20605;-83
2023/09/04 03:45:33;;;;;;;6.10;5.53;;;;;;;11.76;100.00;102090.56;5094072;28;20297;-82
2023/09/04 03:48:00;;;;;;;6.27;4.83;;;;;;;11.77;100.00;102084.28;5095244;28;20684;-83
2023/09/04 03:50:26;;;;;;;6.10;5.00;;;;;;;11.76;100.00;102095.03;5095270;28;20227;-83
2023/09/04 03:52:54;;;;;;;5.97;5.47;;;;;;;11.78;100.00;102101.16;5095447;28;20200;-83
2023/09/04 03:55:21;;;;;;;5.47;4.97;;;;;;;11.77;100.00;102096.78;5095818;28;20215;-83
2023/09/04 03:57:51;;;;;;;5.33;4.80;;;;;;;11.76;100.00;102098.56;5095436;28;20195;-82
2023/09/04 04:00:18;;;;;;;5.57;4.90;;;;;;;11.73;100.00;102088.00;5078835;28;20797;-83
2023/09/04 04:02:45;;;;;;;6.57;5.07;;;;;;;11.72;100.00;102101.41;5095414;28;20203;-82
2023/09/04 04:05:13;;;;;;;5.83;5.30;;;;;;;11.70;100.00;102104.13;5093023;28;20207;-82
2023/09/04 04:07:40;;;;;;;5.83;5.27;;;;;;;11.69;100.00;102096.19;5080824;28;20224;-83
2023/09/04 04:10:09;;;;;;;5.93;5.40;;;;;;;11.67;100.00;102103.41;5074614;28;20231;-81
2023/09/04 04:12:35;;;;;;;5.60;5.00;;;;;;;11.64;100.00;102098.22;5088531;28;20222;-83
2023/09/04 04:15:06;;;;;;;5.20;4.70;;;;;;;11.61;100.00;102103.69;5094730;28;20557;-84
2023/09/04 04:17:32;;;;;;;5.33;4.83;;;;;;;11.60;100.00;102107.31;5094096;28;20212;-84
2023/09/04 04:19:59;;;;;;;5.20;4.70;;;;;;;11.54;100.00;102113.75;5094681;28;20261;-83
2023/09/04 04:22:25;;;;;;;5.10;4.70;;;;;;;11.49;100.00;102097.09;5095231;28;20229;-81
2023/09/04 04:24:52;;;;;;;5.57;4.40;;;;;;;11.45;100.00;102107.06;5087026;28;20203;-84
2023/09/04 04:27:20;;;;;;;5.20;4.70;;;;;;;11.40;100.00;102109.03;5093474;28;20223;-84
2023/09/04 04:29:49;;;;;;;5.47;4.90;;;;;;;11.36;100.00;102103.91;5095068;28;20224;-82
2023/09/04 04:32:16;;;;;;;5.23;4.80;;;;;;;11.33;100.00;102109.34;5094209;28;20209;-82
2023/09/04 04:34:43;;;;;;;5.70;5.10;;;;;;;11.32;100.00;102104.97;5095459;28;20572;-83
2023/09/04 04:37:09;;;;;;;6.87;5.07;;;;;;;11.32;100.00;102102.28;5094500;28;20208;-83
2023/09/04 04:39:36;;;;;;;7.63;5.63;;;;;;;11.31;100.00;102103.22;5082112;28;20213;-81
2023/09/04 04:42:02;;;;;;;5.47;5.03;;;;;;;11.31;100.00;102104.09;5092264;28;20197;-83
2023/09/04 04:44:30;;;;;;;6.50;5.20;;;;;;;11.31;100.00;102105.88;5082833;28;20203;-83
2023/09/04 04:46:57;;;;;;;5.67;5.17;;;;;;;11.30;100.00;102106.81;5090934;28;20220;-84
2023/09/04 04:49:24;;;;;;;5.33;4.83;;;;;;;11.30;100.00;102109.50;5096635;28;20211;-83
2023/09/04 04:51:50;;;;;;;5.27;4.77;;;;;;;11.28;100.00;102111.38;5095222;28;20205;-83
2023/09/04 04:54:19;;;;;;;5.53;5.03;;;;;;;11.27;100.00;102115.84;5094405;28;20571;-82
2023/09/04 04:56:46;;;;;;;5.67;4.97;;;;;;;11.26;100.00;102119.44;5083176;28;20674;-84
2023/09/04 04:59:12;;;;;;;5.60;5.10;;;;;;;11.23;100.00;102114.25;5092157;28;20213;-84
2023/09/04 05:01:41;;;;;;;5.47;4.97;;;;;;;11.20;100.00;102111.69;5093889;28;20710;-83
2023/09/04 05:04:07;;;;;;;5.30;4.80;;;;;;;11.21;100.00;102117.91;5093839;28;20236;-84
2023/09/04 05:06:33;;;;;;;6.30;4.60;;;;;;;11.21;100.00;102115.22;5093493;28;20202;-82
2023/09/04 05:09:00;;;;;;;5.80;5.30;;;;;;;11.21;100.00;102121.44;5093029;28;20229;-82
2023/09/04 05:11:26;;;;;;;7.03;5.50;;;;;;;11.23;100.00;102113.38;5093494;28;20257;-84
2023/09/04 05:13:53;;;;;;;6.03;5.43;;;;;;;11.23;100.00;102108.03;5093266;28;20231;-84
2023/09/04 05:16:19;;;;;;;5.57;5.07;;;;;;;11.26;100.00;102108.78;5094434;28;20266;-85
2023/09/04 05:18:47;;;;;;;6.90;5.30;;;;;;;11.24;100.00;102110.63;5093596;28;20193;-82
2023/09/04 05:21:14;;;;;;;6.13;5.07;;;;;;;11.21;100.00;102099.22;5093923;28;20612;-83
2023/09/04 05:23:40;;;;;;;5.97;5.37;;;;;;;11.20;100.00;102108.16;5093167;28;20209;-83
2023/09/04 05:26:09;;;;;;;6.60;6.00;;;;;;;11.21;100.00;102104.56;5094336;28;20233;-84
2023/09/04 05:28:36;;;;;;;7.73;5.77;;;;;;;11.23;100.00;102114.25;5093067;28;20427;-84
2023/09/04 05:31:03;;;;;;;6.43;5.47;;;;;;;11.27;100.00;102118.50;5093325;28;20230;-82
2023/09/04 05:33:30;;;;;;;7.57;5.60;;;;;;;11.32;100.00;102113.81;5092848;28;20254;-83
2023/09/04 05:35:58;;;;;;;6.80;6.10;;;;;;;11.39;100.00;102125.09;5085946;28;20205;-83
2023/09/04 05:38:25;;;;;;;7.67;6.60;;;;;;;11.45;100.00;102123.06;5092375;28;20201;-83
2023/09/04 05:40:54;;;;;;;7.77;6.33;;;;;;;11.52;100.00;102131.63;5093166;28;20703;-84
2023/09/04 05:43:20;;;;;;;8.20;6.50;;;;;;;11.59;100.00;102126.91;5092917;28;20210;-83
2023/09/04 05:45:47;;;;;;;7.90;6.83;;;;;;;11.67;100.00;102130.97;5092977;28;20207;-83
2023/09/04 05:48:13;;;;;;;9.10;6.70;;;;;;;11.77;100.00;102127.00;5092663;28;20588;-83
2023/09/04 05:50:40;;;;;;;7.90;6.47;;;;;;;11.89;100.00;102127.38;5092847;28;20226;-83
2023/09/04 05:53:08;;;;;;;8.53;6.60;;;;;;;12.00;100.00;102123.25;5093883;28;20208;-83
2023/09/04 05:55:36;;;;;;;6.40;5.90;;;;;;;12.12;100.00;102132.53;5092954;28;20200;-85
2023/09/04 05:58:03;;;;;;;8.27;6.10;;;;;;;12.25;100.00;102128.34;5093087;28;20198;-84
2023/09/04 06:00:29;;;;;;;7.63;5.90;;;;;;;12.37;100.00;102126.88;5090553;28;20228;-84
2023/09/04 06:02:56;;;;;;;5.50;5.00;;;;;;;12.49;100.00;102129.00;5092745;28;20200;-83
2023/09/04 06:05:24;;;;;;;5.73;5.13;;;;;;;12.60;100.00;102128.47;5092933;28;20208;-84
2023/09/04 06:07:50;;;;;;;5.40;4.90;;;;;;;12.70;100.00;102119.09;5089313;28;20223;-83
2023/09/04 06:10:18;;;;;;;5.93;5.43;;;;;;;12.82;100.00;102126.50;5087591;28;20610;-83
2023/09/04 06:12:45;;;;;;;5.30;4.80;;;;;;;12.94;100.00;102128.53;5086031;28;20204;-83
2023/09/04 06:15:11;;;;;;;5.83;5.30;;;;;;;13.08;100.00;102125.19;5092632;28;20212;-83
2023/09/04 06:17:38;;;;;;;6.27;4.73;;;;;;;13.20;100.00;102125.47;5092819;28;20209;-83
2023/09/04 06:20:06;;;;;;;5.00;4.50;;;;;;;13.32;100.00;102118.63;5092247;28;20217;-83
2023/09/04 06:22:32;;;;;;;5.30;4.87;;;;;;;13.43;100.00;102115.41;5092842;28;20208;-83
2023/09/04 06:24:59;;;;;;;4.70;4.10;;;;;;;13.57;100.00;102125.38;5092452;28;20204;-83
2023/09/04 06:27:27;;;;;;;4.97;4.53;;;;;;;13.70;100.00;102113.94;5092262;28;20208;-83
2023/09/04 06:29:53;;;;;;;4.43;4.03;;;;;;;13.83;100.00;102115.00;5092880;28;20260;-84
2023/09/04 06:32:20;;;;;;;4.67;4.17;;;;;;;13.95;100.00;102126.03;5092347;28;20203;-82
2023/09/04 06:34:46;;;;;;;5.23;3.80;;;;;;;14.06;100.00;102128.97;5091767;28;20202;-85
2023/09/04 06:37:12;;;;;;;4.23;3.83;;;;;;;14.19;100.00;102125.53;5091578;28;20200;-85
2023/09/04 06:39:39;;;;;;;4.50;4.07;;;;;;;14.30;100.00;102118.75;5091569;28;20200;-83
2023/09/04 06:42:06;;;;;;;4.30;3.87;;;;;;;14.44;100.00;102116.19;5092220;28;20208;-84
2023/09/04 06:44:33;;;;;;;3.83;3.40;;;;;;;14.61;100.00;102112.53;5091709;28;20215;-84
2023/09/04 06:47:00;;;;;;;3.93;3.60;;;;;;;14.73;99.47;102107.34;5091754;28;20208;-84
2023/09/04 06:49:26;;;;;;;3.87;3.17;;;;;;;14.85;98.61;102117.38;5092384;28;20225;-83
2023/09/04 06:51:53;;;;;;;5.10;3.53;;;;;;;14.98;97.25;102112.16;5093161;28;20208;-80
2023/09/04 06:54:19;;;;;;;4.53;3.90;;;;;;;15.11;97.13;102118.50;5093797;28;20215;-81
2023/09/04 06:56:46;;;;;;;6.07;4.20;;;;;;;15.26;96.85;102127.47;5090311;28;20217;-81
2023/09/04 06:59:12;;;;;;;7.13;4.13;;;;;;;15.39;96.06;102119.56;5088901;28;20196;-84
2023/09/04 07:01:40;;;;;;;8.17;4.90;;;;;;;15.52;94.45;102121.41;5091123;28;20262;-81
2023/09/04 07:04:07;;;;;;;6.90;4.97;;;;;;;15.63;93.13;102126.16;5092766;28;20260;-81
2023/09/04 07:06:33;;;;;;;5.93;5.00;;;;;;;15.74;92.88;102120.13;5090470;28;20210;-80
2023/09/04 07:09:00;;;;;;;7.47;5.63;;;;;;;15.83;90.55;102123.09;5085859;28;20249;-82
2023/09/04 07:11:26;;;;;;;7.73;5.90;;;;;;;16.00;91.16;102118.50;5090367;28;20267;-82
2023/09/04 07:13:53;;;;;;;6.57;4.93;;;;;;;16.14;90.39;102115.78;5091657;28;20213;-81
2023/09/04 07:16:19;;;;;;;11.90;6.07;;;;;;;16.28;89.42;102113.97;5092115;28;20213;-83
2023/09/04 07:18:47;;;;;;;9.90;5.67;;;;;;;16.40;86.56;102117.69;5093055;28;20207;-80
2023/09/04 07:21:13;;;;;;;12.97;5.73;;;;;;;16.52;86.75;102116.91;5092856;28;20231;-79
2023/09/04 07:23:40;;;;;;;7.07;4.57;;;;;;;16.65;84.74;102117.00;5093209;28;20199;-80
2023/09/04 07:26:07;;;;;;;11.13;5.30;;;;;;;16.80;84.53;102115.13;5094213;28;20202;-81
2023/09/04 07:28:33;;;;;;;6.10;4.03;;;;;;;16.95;83.23;102114.09;5087560;28;20325;-82
2023/09/04 07:31:16;;;;;;;9.60;5.73;;;;;;;17.10;81.95;102117.59;5092596;28;20242;-83
2023/09/04 07:33:43;;;;;;;5.47;3.60;;;;;;;17.23;82.05;102122.03;5097221;28;20270;-81
2023/09/04 07:36:10;;;;;;;5.83;3.97;;;;;;;17.38;81.28;102117.44;5092091;28;20216;-80
2023/09/04 07:38:37;;;;;;;5.50;3.30;;;;;;;17.55;81.25;102111.75;5091943;28;20199;-80
2023/09/04 07:41:04;;;;;;;4.97;3.67;;;;;;;17.73;80.27;102109.66;5092446;28;20226;-82
2023/09/04 07:43:31;;;;;;;5.30;2.93;;;;;;;17.91;79.67;102124.53;5093727;28;20491;-84
2023/09/04 07:45:58;;;;;;;4.30;3.03;;;;;;;18.10;78.47;102121.34;5087679;28;20828;-81
2023/09/04 07:48:25;;;;;;;7.67;3.93;;;;;;;18.26;77.66;102118.44;5092043;28;20230;-81
2023/09/04 07:50:52;;;;;;;3.97;2.70;;;;;;;18.40;77.18;102115.59;5084971;28;20294;-82
2023/09/04 07:53:20;;;;;;;6.50;3.20;;;;;;;18.59;75.93;102121.41;5091992;28;20211;-81
2023/09/04 07:55:47;;;;;;;4.20;2.80;;;;;;;18.75;75.39;102121.13;5088314;28;20222;-81
2023/09/04 07:58:14;;;;;;;2.80;2.47;;;;;;;18.87;74.56;102114.78;5092234;28;20220;-82
2023/09/04 08:00:44;;;;;;;4.00;2.83;;;;;;;19.03;73.91;102126.16;5092179;28;20227;-82
2023/09/04 08:03:11;;;;;;;3.37;2.63;;;;;;;19.13;72.66;102122.78;5091971;28;20220;-83
2023/09/04 08:05:37;;;;;;;3.60;2.43;;;;;;;19.29;73.34;102132.28;5091880;28;20205;-83
2023/09/04 08:08:08;;;;;;;3.37;2.27;;;;;;;19.44;71.30;102122.13;5090975;28;20206;-81
2023/09/04 08:10:39;;;;;;;4.33;2.10;;;;;;;19.56;69.94;102123.91;5092190;28;20227;-81
2023/09/04 08:13:06;;;;;;;3.30;2.50;;;;;;;19.70;70.45;102120.16;5095816;28;20211;-83
2023/09/04 08:15:32;;;;;;;3.63;2.63;;;;;;;19.85;70.07;102121.66;5095304;28;20202;-80
2023/09/04 08:17:59;;;;;;;4.53;2.73;;;;;;;20.01;68.53;102127.56;5100264;28;20211;-81
2023/09/04 08:20:26;;;;;;;6.03;2.60;;;;;;;20.14;68.38;102124.72;5095532;28;20321;-82
2023/09/04 08:22:53;;;;;;;3.67;2.30;;;;;;;20.28;67.26;102124.44;5093335;28;20204;-80
2023/09/04 08:25:19;;;;;;;2.67;2.23;;;;;;;20.42;67.06;102129.63;5093688;28;20211;-80
2023/09/04 08:27:47;;;;;;;3.97;2.07;;;;;;;20.58;66.53;102129.25;5086563;28;20211;-84
2023/09/04 08:30:14;;;;;;;3.37;1.87;;;;;;;20.73;65.18;102129.84;5095118;28;20706;-84
2023/09/04 08:32:40;;;;;;;2.42;1.90;;;;;;;20.87;63.06;102128.69;5095082;28;20223;-80
2023/09/04 08:35:07;;;;;;;3.13;1.83;;;;;;;20.97;63.59;102125.06;5095794;28;20211;-82
2023/09/04 08:37:34;;;;;;;5.05;2.20;;;;;;;21.09;62.54;102123.19;5095244;28;20215;-82
2023/09/04 08:40:01;;;;;;;3.05;1.75;;;;;;;21.26;62.36;102117.25;5094843;28;20241;-81
2023/09/04 08:42:29;;;;;;;3.58;1.90;;;;;;;21.43;62.82;102113.94;5094432;28;20226;-81
2023/09/04 08:44:57;;;;;;;2.97;2.00;;;;;;;21.58;59.48;102113.59;5092562;28;20837;-81
2023/09/04 08:47:24;;;;;;;3.33;1.90;;;;;;;21.68;59.34;102106.38;5091348;28;20257;-82
2023/09/04 08:49:51;;;;;;;3.88;1.80;;;;;;;21.85;59.76;102108.50;5088266;28;20680;-83
2023/09/04 08:52:18;;;;;;;5.53;2.00;;;;;;;21.96;57.44;102100.25;5087768;28;20215;-81
2023/09/04 08:54:45;;;;;;;2.45;1.67;;;;;;;22.05;55.56;102099.47;5094732;28;20215;-83
2023/09/04 08:57:11;;;;;;;1.55;1.45;;;;;;;22.11;55.00;102098.06;5093472;28;20212;-81
2023/09/04 08:59:38;;;;;;;2.95;1.50;;;;;;;22.16;53.35;102096.66;5094683;28;20598;-82
2023/09/04 09:02:08;;;;;;;1.63;1.45;;;;;;;22.28;53.77;102094.69;5092986;28;20208;-82
2023/09/04 09:04:35;;;;;;;1.95;1.30;;;;;;;22.42;53.24;102097.00;5088525;28;20203;-81
2023/09/04 09:07:03;;;;;;;2.03;1.45;;;;;;;22.55;51.79;102096.78;5093622;28;20205;-84
2023/09/04 09:09:30;;;;;;;2.50;1.75;;;;;;;22.70;51.77;102087.22;5094422;28;20715;-84
2023/09/04 09:11:57;;;;;;;2.83;1.85;;;;;;;22.85;51.72;102091.28;5085736;28;20205;-82
2023/09/04 09:14:27;;;;;;;1.92;1.30;;;;;;;23.01;51.45;102084.41;5077361;28;20216;-83
2023/09/04 09:17:02;;;;;;;1.77;1.35;;;;;;;23.14;49.58;102083.09;5094331;28;20261;-84
2023/09/04 09:19:33;;;;;;;2.63;1.75;;;;;;;23.23;49.88;102075.09;5083930;28;20188;-84
2023/09/04 09:22:09;;;;;;;1.35;1.25;;;;;;;23.29;49.39;102075.34;5087629;28;20750;-83
2023/09/04 09:24:50;;;;;;;2.22;1.58;;;;;;;23.36;48.45;102067.50;5093407;28;20215;-83
2023/09/04 09:27:18;;;;;;;2.13;1.60;;;;;;;23.44;49.21;102063.06;5093727;28;20203;-84
2023/09/04 09:29:46;;;;;;;2.40;1.73;;;;;;;23.50;48.67;102067.03;5093756;28;20246;-84
2023/09/04 09:32:13;;;;;;;1.67;1.33;;;;;;;23.54;48.96;102061.19;5085791;28;20201;-81
2023/09/04 09:34:40;;;;;;;3.55;1.92;;;;;;;23.57;49.37;102056.47;5088092;28;20207;-82
2023/09/04 09:37:07;;;;;;;1.67;1.50;;;;;;;23.62;48.25;102059.59;5088963;28;20196;-82
2023/09/04 09:39:34;;;;;;;1.50;1.35;;;;;;;23.64;48.48;102060.31;5092589;28;20286;-82
2023/09/04 09:42:01;;;;;;;2.10;1.50;;;;;;;23.65;47.85;102053.84;5087662;28;20208;-81
2023/09/04 09:44:30;;;;;;;3.22;1.67;;;;;;;23.67;47.63;102055.41;5087660;28;20559;-82
2023/09/04 09:46:57;;;;;;;2.38;1.58;;;;;;;23.74;47.17;102044.81;5092787;28;20279;-82
2023/09/04 09:49:23;;;;;;;2.10;1.67;;;;;;;23.80;48.02;102047.78;5084815;28;20221;-82
2023/09/04 09:51:54;;;;;;;5.57;1.77;;;;;;;23.84;47.94;102049.19;5085397;28;20239;-81
2023/09/04 09:54:37;;;;;;;1.50;1.17;;;;;;;23.95;48.08;102047.31;5091556;28;20226;-81
2023/09/04 09:57:07;;;;;;;1.48;1.23;;;;;;;24.03;48.32;102047.38;5086531;28;20200;-81
2023/09/04 09:59:34;;;;;;;2.85;1.42;;;;;;;24.04;47.77;102039.06;5092024;28;20227;-81
2023/09/04 10:02:02;;;;;;;1.98;1.45;;;;;;;24.06;46.24;102038.94;5093449;28;20215;-81
2023/09/04 10:04:31;;;;;;;2.05;1.50;;;;;;;24.09;46.79;102039.47;5091678;28;20571;-82
2023/09/04 10:06:59;;;;;;;1.40;1.30;;;;;;;24.16;47.21;102035.16;5093442;28;20204;-83
2023/09/04 10:09:28;;;;;;;2.05;1.60;;;;;;;24.20;46.71;102039.25;5088643;28;20228;-80
2023/09/04 10:12:03;;;;;;;2.72;1.40;;;;;;;24.29;47.64;102040.25;5082942;28;20201;-83
2023/09/04 10:14:33;;;;;;;1.63;1.48;;;;;;;24.31;45.88;102040.13;5089258;28;20202;-82
2023/09/04 10:17:02;;;;;;;1.77;1.30;;;;;;;24.30;45.38;102035.69;5092781;28;20286;-82
2023/09/04 10:19:31;;;;;;;3.38;1.55;;;;;;;24.31;45.63;102035.53;5093067;28;20207;-82
2023/09/04 10:22:03;;;;;;;1.70;1.60;;;;;;;24.32;46.01;102033.66;5093552;28;20200;-81
2023/09/04 10:24:36;;;;;;;3.00;1.55;;;;;;;24.35;45.51;102027.91;5091635;28;20196;-83
2023/09/04 10:27:08;;;;;;;3.65;1.35;;;;;;;24.41;45.27;102024.56;5088288;28;20192;-82
2023/09/04 10:29:45;;;;;;;2.75;1.40;;;;;;;24.54;45.69;102014.16;5088230;28;20216;-82
2023/09/04 10:32:13;;;;;;;1.95;1.50;;;;;;;24.60;44.78;102016.25;5085631;28;20196;-81
2023/09/04 10:34:41;;;;;;;3.88;1.48;;;;;;;24.62;44.72;102006.06;5087436;28;20204;-82
2023/09/04 10:37:11;;;;;;;2.03;1.58;;;;;;;24.68;44.67;102015.47;5088012;28;20228;-83
2023/09/04 10:39:39;;;;;;;2.30;1.40;;;;;;;24.73;45.51;102008.53;5090348;28;20208;-81
2023/09/04 10:42:06;;;;;;;2.78;1.60;;;;;;;24.76;45.37;102004.63;5084878;28;20228;-82
2023/09/04 10:44:45;;;;;;;2.42;1.65;;;;;;;24.76;45.20;102002.78;5092743;28;20279;-85
2023/09/04 10:47:12;;;;;;;1.65;1.35;;;;;;;24.81;45.49;102007.75;5091623;28;20203;-81
2023/09/04 10:49:38;;;;;;;1.63;1.45;;;;;;;24.81;45.09;102008.63;5092074;28;20228;-84
2023/09/04 10:52:06;;;;;;;1.50;1.30;;;;;;;24.82;44.86;102006.75;5088970;28;20242;-83
2023/09/04 10:54:34;;;;;;;1.58;1.30;;;;;;;24.84;44.16;102005.59;5088161;28;20208;-83
2023/09/04 10:57:05;;;;;;;2.40;1.52;;;;;;;24.86;44.41;102003.56;5090309;28;20212;-84
2023/09/04 10:59:52;;;;;;;3.35;1.48;;;;;;;24.93;44.13;101999.16;5090107;28;20257;-82
2023/09/04 11:02:27;;;;;;;1.33;1.15;;;;;;;24.99;44.68;102000.44;5088559;28;20571;-82
2023/09/04 11:04:53;;;;;;;1.63;1.27;;;;;;;25.08;44.58;102001.38;5088952;28;20204;-83
2023/09/04 11:07:28;;;;;;;2.25;1.20;;;;;;;25.22;43.78;101998.06;5091190;28;20195;-82
2023/09/04 11:10:03;;;;;;;2.42;1.27;;;;;;;25.32;43.56;101987.91;5087447;28;21392;-83
2023/09/04 11:12:33;;;;;;;2.75;1.30;;;;;;;25.40;44.01;101981.66;5081770;28;20210;-83
2023/09/04 11:15:00;;;;;;;1.85;1.20;;;;;;;25.42;42.95;101980.47;5089161;28;20257;-83
2023/09/04 11:17:28;;;;;;;2.40;1.23;;;;;;;25.44;43.28;101980.31;5092039;28;20770;-82
2023/09/04 11:19:55;;;;;;;1.77;1.40;;;;;;;25.43;43.31;101984.06;5091064;28;20216;-83
2023/09/04 11:22:24;;;;;;;2.22;1.50;;;;;;;25.34;42.62;101974.09;5091539;28;20290;-83
2023/09/04 11:24:53;;;;;;;3.08;1.25;;;;;;;25.31;42.64;101985.34;5090287;28;20211;-82